createdAt,value
2022-11-03T00:02:18.832Z,101012.06
2022-11-03T00:04:46.434Z,101015.41
2022-11-03T00:07:21.927Z,101005.44
2022-11-03T00:09:49.862Z,101012.72
2022-11-03T00:12:17.690Z,101024.75
2022-11-03T00:14:45.262Z,101022.16
2022-11-03T00:17:13.113Z,101025.63
2022-11-03T00:19:40.632Z,101014.09
2022-11-03T00:22:08.514Z,101013.31
2022-11-03T00:24:35.981Z,101013.66
2022-11-03T00:27:03.934Z,101013.97
2022-11-03T00:29:31.407Z,101012.38
2022-11-03T00:31:59.291Z,100996.25
2022-11-03T00:34:27.020Z,100998.16
2022-11-03T00:36:55.461Z,101006.22
2022-11-03T00:39:22.919Z,101001.94
2022-11-03T00:41:51.837Z,101001.63
2022-11-03T00:44:19.335Z,100993.22
2022-11-03T00:46:46.847Z,100984.34
2022-11-03T00:49:14.757Z,100994.00
2022-11-03T00:51:42.334Z,100990.19
2022-11-03T00:54:10.167Z,100988.59
2022-11-03T00:56:40.948Z,100984.34
2022-11-03T00:59:10.317Z,100994.34
2022-11-03T01:01:47.223Z,100994.34
2022-11-03T01:04:35.506Z,100982.31
2022-11-03T01:07:06.234Z,100977.59
2022-11-03T01:09:43.461Z,100972.22
2022-11-03T01:12:18.404Z,100974.13
2022-11-03T01:14:50.491Z,100971.44
2022-11-03T01:17:27.496Z,100980.63
2022-11-03T01:19:55.866Z,100974.03
2022-11-03T01:22:24.589Z,100969.75
2022-11-03T01:24:52.229Z,100965.94
2022-11-03T01:27:22.594Z,100961.34
2022-11-03T01:29:50.206Z,100958.75
2022-11-03T01:32:18.886Z,100960.69
2022-11-03T01:34:46.349Z,100947.22
2022-11-03T01:37:14.186Z,100945.63
2022-11-03T01:39:41.794Z,100949.78
2022-11-03T01:42:14.579Z,100945.84
2022-11-03T01:44:50.021Z,100943.81
2022-11-03T01:47:43.834Z,100937.22
2022-11-03T01:50:23.620Z,100937.09
2022-11-03T01:53:01.069Z,100939.34
2022-11-03T01:55:44.319Z,100944.25
2022-11-03T01:58:35.952Z,100952.69
2022-11-03T02:01:10.525Z,100964.25
2022-11-03T02:03:55.940Z,100957.72
2022-11-03T02:06:34.360Z,100946.19
2022-11-03T02:09:14.305Z,100966.16
2022-11-03T02:12:07.094Z,100965.34
2022-11-03T02:14:53.067Z,100968.25
2022-11-03T02:17:26.557Z,100960.84
2022-11-03T02:20:20.811Z,100959.28
2022-11-03T02:23:19.645Z,100956.59
2022-11-03T02:26:05.999Z,100955.13
2022-11-03T02:28:39.534Z,100955.25
2022-11-03T02:31:24.641Z,100949.88
2022-11-03T02:34:44.441Z,100951.13
2022-11-03T02:37:38.785Z,100956.16
2022-11-03T02:40:27.781Z,100960.41
2022-11-03T02:43:34.196Z,100956.16
2022-11-03T02:46:11.519Z,100953.47
2022-11-03T02:48:51.630Z,100954.91
2022-11-03T02:51:28.841Z,100966.94
2022-11-03T02:54:52.807Z,100957.28
2022-11-03T02:57:32.331Z,100958.41
2022-11-03T03:00:18.028Z,100957.50
2022-11-03T03:03:23.983Z,100964.66
2022-11-03T03:06:07.622Z,100958.84
2022-11-03T03:08:46.883Z,100957.91
2022-11-03T03:11:49.523Z,100961.75
2022-11-03T03:14:45.198Z,100963.28
2022-11-03T03:17:40.367Z,100965.22
2022-11-03T03:20:19.668Z,100966.78
2022-11-03T03:23:26.588Z,100963.28
2022-11-03T03:26:10.822Z,100964.44
2022-11-03T03:28:53.637Z,100963.28
2022-11-03T03:31:23.745Z,100969.13
2022-11-03T03:34:04.376Z,100968.47
2022-11-03T03:36:35.136Z,100973.84
2022-11-03T03:39:07.004Z,100975.44
2022-11-03T03:41:36.222Z,100972.06
2022-11-03T03:44:06.462Z,100969.72
2022-11-03T03:46:44.642Z,100979.56
2022-11-03T03:49:12.563Z,100976.41
2022-11-03T03:51:41.098Z,100979.09
2022-11-03T03:54:09.052Z,100980.69
2022-11-03T03:57:05.091Z,100976.09
2022-11-03T03:59:33.151Z,100974.97
2022-11-03T04:02:00.892Z,100982.38
2022-11-03T04:04:28.935Z,100972.28
2022-11-03T04:07:15.573Z,100972.75
2022-11-03T04:09:43.059Z,100973.97
2022-11-03T04:12:29.774Z,100969.06
2022-11-03T04:15:15.615Z,100973.63
2022-11-03T04:18:07.485Z,100979.03
2022-11-03T04:20:53.885Z,100966.22
2022-11-03T04:23:21.879Z,100966.69
2022-11-03T04:25:54.207Z,100963.69
2022-11-03T04:28:22.614Z,100956.81
2022-11-03T04:30:53.394Z,100953.81
2022-11-03T04:33:24.193Z,100950.44
2022-11-03T04:35:54.747Z,100943.16
2022-11-03T04:38:25.732Z,100940.47
2022-11-03T04:40:57.301Z,100941.34
2022-11-03T04:43:37.061Z,100943.38
2022-11-03T04:46:10.290Z,100951.91
2022-11-03T04:48:37.995Z,100954.59
2022-11-03T04:51:17.952Z,100944.63
2022-11-03T04:53:54.520Z,100943.81
2022-11-03T04:56:25.151Z,100942.28
2022-11-03T04:58:53.995Z,100941.50
2022-11-03T05:01:24.838Z,100950.78
2022-11-03T05:03:54.554Z,100942.28
2022-11-03T05:06:27.094Z,100944.97
2022-11-03T05:09:27.784Z,100940.81
2022-11-03T05:11:55.663Z,100938.44
2022-11-03T05:14:30.290Z,100938.00
2022-11-03T05:16:59.640Z,100937.22
2022-11-03T05:19:58.022Z,100934.53
2022-11-03T05:22:31.179Z,100932.16
2022-11-03T05:25:10.738Z,100936.44
2022-11-03T05:27:38.658Z,100931.06
2022-11-03T05:30:13.964Z,100935.63
2022-11-03T05:32:42.360Z,100928.38
2022-11-03T05:35:23.124Z,100940.34
2022-11-03T05:37:51.748Z,100940.34
2022-11-03T05:40:24.928Z,100940.34
2022-11-03T05:42:58.919Z,100947.31
2022-11-03T05:45:37.430Z,100942.72
2022-11-03T05:48:33.293Z,100941.59
2022-11-03T05:51:19.711Z,100949.69
2022-11-03T05:53:57.175Z,100952.81
2022-11-03T05:56:25.829Z,100949.47
2022-11-03T05:58:59.289Z,100950.69
2022-11-03T06:01:37.332Z,100955.41
2022-11-03T06:04:20.504Z,100957.44
2022-11-03T06:06:58.987Z,100958.66
2022-11-03T06:09:27.941Z,100971.00
2022-11-03T06:11:58.791Z,100960.69
2022-11-03T06:14:30.014Z,100962.72
2022-11-03T06:17:10.544Z,100959.69
2022-11-03T06:19:44.918Z,100959.34
2022-11-03T06:22:27.644Z,100965.16
2022-11-03T06:25:12.169Z,100959.13
2022-11-03T06:27:40.341Z,100960.00
2022-11-03T06:30:26.048Z,100960.13
2022-11-03T06:32:58.871Z,100965.94
2022-11-03T06:35:26.610Z,100965.59
2022-11-03T06:37:58.042Z,100969.22
2022-11-03T06:40:36.685Z,100971.25
2022-11-03T06:43:28.874Z,100967.06
2022-11-03T06:45:59.416Z,100967.19
2022-11-03T06:48:34.454Z,100969.88
2022-11-03T06:51:02.447Z,100974.59
2022-11-03T06:53:33.772Z,100977.72
2022-11-03T06:56:01.441Z,100977.06
2022-11-03T06:58:40.468Z,100979.41
2022-11-03T07:01:20.178Z,100981.78
2022-11-03T07:03:52.684Z,100981.78
2022-11-03T07:06:29.248Z,100982.53
2022-11-03T07:09:04.921Z,100981.09
2022-11-03T07:11:43.849Z,100983.56
2022-11-03T07:14:33.197Z,100984.78
2022-11-03T07:17:05.637Z,100982.84
2022-11-03T07:19:45.668Z,100981.41
2022-11-03T07:22:22.424Z,100982.19
2022-11-03T07:25:02.805Z,100983.44
2022-11-03T07:27:36.428Z,100984.88
2022-11-03T07:30:22.797Z,100977.94
2022-11-03T07:32:54.061Z,100974.00
2022-11-03T07:36:13.115Z,100975.91
2022-11-03T07:38:29.838Z,100978.59
2022-11-03T07:41:00.006Z,100962.09
2022-11-03T07:43:39.536Z,100955.91
2022-11-03T07:46:16.647Z,100958.25
2022-11-03T07:48:48.299Z,100961.44
2022-11-03T07:51:30.012Z,100959.06
2022-11-03T07:54:08.684Z,100959.06
2022-11-03T07:56:56.826Z,100963.56
2022-11-03T07:59:41.321Z,100967.38
2022-11-03T08:02:47.110Z,100954.34
2022-11-03T08:05:14.975Z,100943.56
2022-11-03T08:07:42.804Z,100942.09
2022-11-03T08:10:10.743Z,100933.66
2022-11-03T08:12:38.540Z,100923.31
2022-11-03T08:15:07.331Z,100925.34
2022-11-03T08:17:35.058Z,100923.59
2022-11-03T08:20:02.498Z,100920.63
2022-11-03T08:22:30.401Z,100913.44
2022-11-03T08:24:57.813Z,100915.78
2022-11-03T08:27:27.466Z,100908.13
2022-11-03T08:29:54.934Z,100916.66
2022-11-03T08:32:22.978Z,100905.78
2022-11-03T08:34:50.562Z,100911.16
2022-11-03T08:37:18.375Z,100907.69
2022-11-03T08:39:45.788Z,100906.56
2022-11-03T08:42:13.597Z,100904.66
2022-11-03T08:44:41.022Z,100902.75
2022-11-03T08:47:08.899Z,100909.72
2022-11-03T08:49:36.321Z,100908.22
2022-11-03T08:52:04.993Z,100909.13
2022-11-03T08:54:32.578Z,100906.88
2022-11-03T08:57:00.508Z,100904.25
2022-11-03T08:59:27.970Z,100897.75
2022-11-03T09:01:57.746Z,100902.78
2022-11-03T09:04:25.307Z,100885.47
2022-11-03T09:06:53.100Z,100888.59
2022-11-03T09:12:09.713Z,100888.25
2022-11-03T09:14:37.465Z,100891.06
2022-11-03T09:17:05.071Z,100893.31
2022-11-03T09:19:33.148Z,100889.50
2022-11-03T09:22:00.730Z,100895.75
2022-11-03T09:24:28.315Z,100897.25
2022-11-03T09:27:01.086Z,100896.78
2022-11-03T09:29:36.451Z,100899.38
2022-11-03T09:32:23.004Z,100890.28
2022-11-03T09:34:51.149Z,100881.94
2022-11-03T09:37:18.996Z,100885.06
2022-11-03T09:39:46.416Z,100882.03
2022-11-03T09:42:15.512Z,100882.44
2022-11-03T09:44:43.578Z,100876.03
2022-11-03T09:47:24.450Z,100882.41
2022-11-03T09:49:52.388Z,100875.59
2022-11-03T09:52:24.104Z,100873.06
2022-11-03T09:54:59.792Z,100873.16
2022-11-03T09:57:29.047Z,100871.69
2022-11-03T09:59:56.660Z,100872.13
2022-11-03T10:02:31.368Z,100872.13
2022-11-03T10:05:04.303Z,100870.56
2022-11-03T10:07:34.666Z,100867.94
2022-11-03T10:10:02.290Z,100869.06
2022-11-03T10:12:35.904Z,100874.81
2022-11-03T10:15:03.680Z,100864.28
2022-11-03T10:17:31.589Z,100863.06
2022-11-03T10:19:59.740Z,100857.59
2022-11-03T10:22:27.674Z,100859.16
2022-11-03T10:25:37.108Z,100856.00
2022-11-03T10:28:23.354Z,100847.91
2022-11-03T10:31:12.919Z,100848.28
2022-11-03T10:34:01.726Z,100843.91
2022-11-03T10:36:32.439Z,100850.03
2022-11-03T10:39:20.663Z,100849.13
2022-11-03T10:42:00.405Z,100845.13
2022-11-03T10:44:30.107Z,100842.50
2022-11-03T10:47:03.917Z,100835.47
2022-11-03T10:49:42.509Z,100836.50
2022-11-03T10:52:23.198Z,100834.91
2022-11-03T10:54:54.705Z,100829.19
2022-11-03T10:57:24.037Z,100827.25
2022-11-03T10:59:54.251Z,100818.47
2022-11-03T11:02:31.340Z,100815.78
2022-11-03T11:05:02.808Z,100813.25
2022-11-03T11:07:42.051Z,100819.53
2022-11-03T11:10:27.672Z,100818.84
2022-11-03T11:13:26.620Z,100808.75
2022-11-03T11:16:00.571Z,100803.88
2022-11-03T11:18:31.440Z,100805.25
2022-11-03T11:21:20.580Z,100797.59
2022-11-03T11:23:49.660Z,100802.22
2022-11-03T11:26:34.260Z,100792.13
2022-11-03T11:29:11.172Z,100786.97
2022-11-03T11:31:43.092Z,100778.38
2022-11-03T11:34:16.965Z,100778.72
2022-11-03T11:36:55.789Z,100775.25
2022-11-03T11:39:31.126Z,100778.78
2022-11-03T11:42:14.833Z,100769.59
2022-11-03T11:44:45.975Z,100764.63
2022-11-03T11:47:41.147Z,100764.38
2022-11-03T11:50:11.617Z,100762.53
2022-11-03T11:53:05.178Z,100766.47
2022-11-03T11:56:01.800Z,100760.28
2022-11-03T11:58:43.750Z,100745.56
2022-11-03T12:01:23.311Z,100743.66
2022-11-03T12:03:53.853Z,100740.25
2022-11-03T12:06:42.797Z,100742.69
2022-11-03T12:09:13.739Z,100732.06
2022-11-03T12:11:50.184Z,100721.81
2022-11-03T12:14:39.776Z,100721.38
2022-11-03T12:17:19.323Z,100717.88
2022-11-03T12:19:56.150Z,100713.66
2022-11-03T12:22:23.553Z,100716.34
2022-11-03T12:24:56.662Z,100709.81
2022-11-03T12:27:26.981Z,100697.19
2022-11-03T12:30:04.529Z,100692.66
2022-11-03T12:32:34.849Z,100682.00
2022-11-03T12:35:05.441Z,100678.34
2022-11-03T12:37:33.022Z,100683.88
2022-11-03T12:40:00.687Z,100680.91
2022-11-03T12:42:28.596Z,100668.56
2022-11-03T12:44:56.195Z,100669.41
2022-11-03T12:47:24.243Z,100658.75
2022-11-03T12:49:52.173Z,100660.25
2022-11-03T12:52:19.630Z,100650.31
2022-11-03T12:54:47.437Z,100657.66
2022-11-03T12:57:14.967Z,100645.28
2022-11-03T12:59:42.847Z,100646.97
2022-11-03T13:02:11.955Z,100644.00
2022-11-03T13:04:39.906Z,100629.31
2022-11-03T13:07:07.430Z,100635.78
2022-11-03T13:09:36.022Z,100621.03
2022-11-03T13:12:22.341Z,100617.38
2022-11-03T13:14:50.172Z,100609.09
2022-11-03T13:17:17.591Z,100604.59
2022-11-03T13:19:45.606Z,100604.31
2022-11-03T13:22:13.050Z,100592.78
2022-11-03T13:24:41.011Z,100599.81
2022-11-03T13:27:08.911Z,100598.72
2022-11-03T13:29:36.674Z,100598.72
2022-11-03T13:32:05.108Z,100589.09
2022-11-03T13:34:32.900Z,100587.19
2022-11-03T13:37:00.449Z,100584.50
2022-11-03T13:39:28.358Z,100576.78
2022-11-03T13:41:55.804Z,100574.47
2022-11-03T13:44:23.574Z,100572.97
2022-11-03T13:46:51.318Z,100569.03
2022-11-03T13:50:07.639Z,100569.78
2022-11-03T13:52:08.794Z,100566.66
2022-11-03T14:00:14.269Z,100573.56
2022-11-03T14:05:29.960Z,100576.53
2022-11-03T14:07:57.473Z,100578.47
2022-11-03T14:10:25.375Z,100577.19
2022-11-03T14:12:52.789Z,100570.94
2022-11-03T14:15:20.616Z,100558.75
2022-11-03T14:17:50.736Z,100556.75
2022-11-03T14:20:18.676Z,100555.91
2022-11-03T14:22:46.246Z,100555.09
2022-11-03T14:25:14.349Z,100553.53
2022-11-03T14:27:41.916Z,100545.47
2022-11-03T14:30:11.943Z,100536.72
2022-11-03T14:32:39.728Z,100524.84
2022-11-03T14:35:08.164Z,100520.75
2022-11-03T14:37:35.918Z,100523.94
2022-11-03T14:40:05.958Z,100511.19
2022-11-03T14:42:33.506Z,100518.50
2022-11-03T14:45:03.621Z,100517.97
2022-11-03T14:47:31.605Z,100513.84
2022-11-03T14:49:59.092Z,100510.09
2022-11-03T14:52:26.772Z,100504.44
2022-11-03T14:54:54.539Z,100505.75
2022-11-03T14:57:22.110Z,100505.06
2022-11-03T14:59:53.427Z,100497.06
2022-11-03T15:02:21.378Z,100487.16
2022-11-03T15:04:49.287Z,100490.06
2022-11-03T15:07:16.783Z,100483.25
2022-11-03T15:09:44.223Z,100481.50
2022-11-03T15:12:12.124Z,100474.69
2022-11-03T15:14:39.595Z,100471.03
2022-11-03T15:17:07.310Z,100472.78
2022-11-03T15:19:35.146Z,100468.44
2022-11-03T15:22:02.615Z,100463.28
2022-11-03T15:27:17.886Z,100453.16
2022-11-03T15:30:07.573Z,100455.75
2022-11-03T15:32:36.618Z,100450.22
2022-11-03T15:35:05.253Z,100448.53
2022-11-03T15:37:32.720Z,100436.75
2022-11-03T15:40:00.530Z,100444.03
2022-11-03T15:42:28.277Z,100440.47
2022-11-03T15:44:56.100Z,100436.50
2022-11-03T15:47:23.622Z,100439.50
2022-11-03T15:49:51.925Z,100435.88
2022-11-03T15:52:19.395Z,100438.50
2022-11-03T15:54:48.715Z,100444.59
2022-11-03T15:57:16.253Z,100439.94
2022-11-03T15:59:44.161Z,100446.38
2022-11-03T16:02:39.677Z,100442.47
2022-11-03T16:05:02.180Z,100438.94
2022-11-03T16:07:30.264Z,100442.69
2022-11-03T16:09:59.521Z,100435.69
2022-11-03T16:12:28.605Z,100430.53
2022-11-03T16:14:56.154Z,100435.41
2022-11-03T16:17:24.138Z,100436.03
2022-11-03T16:19:51.654Z,100433.19
2022-11-03T16:22:19.650Z,100442.31
2022-11-03T16:24:48.654Z,100434.91
2022-11-03T16:27:16.457Z,100438.56
2022-11-03T16:29:44.331Z,100439.09
2022-11-03T16:32:12.136Z,100437.38
2022-11-03T16:34:39.647Z,100429.56
2022-11-03T16:37:07.634Z,100431.38
2022-11-03T16:39:35.239Z,100433.19
2022-11-03T16:42:03.385Z,100434.25
2022-11-03T16:44:30.987Z,100436.06
2022-11-03T16:46:58.946Z,100430.25
2022-11-03T16:49:26.389Z,100422.09
2022-11-03T16:51:56.465Z,100428.19
2022-11-03T16:54:23.970Z,100420.38
2022-11-03T16:56:55.289Z,100411.78
2022-11-03T16:59:25.706Z,100408.28
2022-11-03T17:01:57.367Z,100402.47
2022-11-03T17:04:25.653Z,100395.09
2022-11-03T17:06:53.732Z,100401.16
2022-11-03T17:09:22.268Z,100397.63
2022-11-03T17:11:50.316Z,100406.03
2022-11-03T17:14:18.203Z,100397.97
2022-11-03T17:16:48.414Z,100386.00
2022-11-03T17:19:16.409Z,100390.56
2022-11-03T17:21:44.504Z,100395.63
2022-11-03T17:24:13.390Z,100396.31
2022-11-03T17:26:47.369Z,100395.63
2022-11-03T17:29:18.184Z,100390.56
2022-11-03T17:31:46.307Z,100389.81
2022-11-03T17:34:13.978Z,100386.44
2022-11-03T17:36:41.857Z,100373.75
2022-11-03T17:39:14.730Z,100386.84
2022-11-03T17:41:42.582Z,100380.00
2022-11-03T17:44:13.826Z,100369.13
2022-11-03T17:46:41.769Z,100375.41
2022-11-03T17:49:09.227Z,100366.91
2022-11-03T17:51:42.162Z,100374.72
2022-11-03T17:54:16.311Z,100375.56
2022-11-03T17:56:44.593Z,100369.50
2022-11-03T17:59:16.217Z,100361.16
2022-11-03T18:01:45.397Z,100351.94
2022-11-03T18:06:48.079Z,100338.94
2022-11-03T18:09:16.270Z,100345.69
2022-11-03T18:12:02.986Z,100344.13
2022-11-03T18:14:31.213Z,100345.63
2022-11-03T18:16:59.359Z,100344.84
2022-11-03T18:19:27.060Z,100345.53
2022-11-03T18:21:54.872Z,100360.13
2022-11-03T18:24:22.467Z,100350.41
2022-11-03T18:26:50.356Z,100338.44
2022-11-03T18:29:17.885Z,100345.31
2022-11-03T18:31:49.906Z,100342.16
2022-11-03T18:34:25.087Z,100347.44
2022-11-03T18:36:53.515Z,100333.13
2022-11-03T18:39:28.023Z,100337.72
2022-11-03T18:41:56.714Z,100338.94
2022-11-03T18:44:29.910Z,100332.81
2022-11-03T18:46:59.012Z,100330.88
2022-11-03T18:49:30.250Z,100322.81
2022-11-03T18:52:14.062Z,100323.59
2022-11-03T18:54:52.236Z,100308.03
2022-11-03T18:57:26.458Z,100302.56
2022-11-03T18:59:54.093Z,100290.25
2022-11-03T19:02:25.443Z,100291.28
2022-11-03T19:04:53.117Z,100281.22
2022-11-03T19:07:32.090Z,100261.28
2022-11-03T19:10:00.752Z,100257.09
2022-11-03T19:12:28.655Z,100253.38
2022-11-03T19:14:58.176Z,100238.91
2022-11-03T19:17:26.424Z,100245.66
2022-11-03T19:19:54.346Z,100245.56
2022-11-03T19:22:23.900Z,100241.88
2022-11-03T19:24:51.371Z,100245.03
2022-11-03T19:27:28.927Z,100238.22
2022-11-03T19:29:59.543Z,100235.59
2022-11-03T19:32:43.531Z,100232.56
2022-11-03T19:35:32.705Z,100237.59
2022-11-03T19:38:17.244Z,100240.22
2022-11-03T19:41:05.138Z,100243.31
2022-11-03T19:43:38.530Z,100242.13
2022-11-03T19:46:06.374Z,100241.97
2022-11-03T19:48:38.743Z,100231.13
2022-11-03T19:51:08.452Z,100232.25
2022-11-03T19:53:37.126Z,100222.91
2022-11-03T19:56:04.997Z,100235.50
2022-11-03T19:58:33.014Z,100230.13
2022-11-03T20:01:05.595Z,100229.25
2022-11-03T20:03:37.648Z,100228.41
2022-11-03T20:06:07.530Z,100217.91
2022-11-03T20:08:37.121Z,100219.72
2022-11-03T20:11:06.359Z,100212.78
2022-11-03T20:13:42.813Z,100210.06
2022-11-03T20:16:16.133Z,100207.38
2022-11-03T20:18:44.307Z,100201.25
2022-11-03T20:21:20.069Z,100198.63
2022-11-03T20:23:54.250Z,100203.59
2022-11-03T20:26:25.575Z,100195.94
2022-11-03T20:28:56.438Z,100194.47
2022-11-03T20:31:24.654Z,100194.94
2022-11-03T20:33:52.201Z,100196.13
2022-11-03T20:36:21.052Z,100190.03
2022-11-03T20:38:59.150Z,100188.53
2022-11-03T20:41:29.323Z,100177.84
2022-11-03T20:43:57.880Z,100172.13
2022-11-03T20:46:29.452Z,100174.88
2022-11-03T20:48:57.573Z,100167.25
2022-11-03T20:51:31.209Z,100160.03
2022-11-03T20:54:22.296Z,100163.56
2022-11-03T20:56:50.949Z,100160.59
2022-11-03T20:59:21.331Z,100147.22
2022-11-03T21:01:50.727Z,100136.53
2022-11-03T21:04:21.202Z,100133.09
2022-11-03T21:06:49.643Z,100127.81
2022-11-03T21:09:18.697Z,100117.88
2022-11-03T21:11:47.143Z,100120.22
2022-11-03T21:14:16.658Z,100117.09
2022-11-03T21:17:02.814Z,100113.72
2022-11-03T21:19:51.424Z,100113.31
2022-11-03T21:22:51.913Z,100115.66
2022-11-03T21:25:18.902Z,100102.66
2022-11-03T21:27:51.920Z,100098.81
2022-11-03T21:30:21.551Z,100099.56
2022-11-03T21:32:49.583Z,100091.88
2022-11-03T21:35:21.953Z,100084.56
2022-11-03T21:37:52.121Z,100086.50
2022-11-03T21:40:20.130Z,100080.31
2022-11-03T21:43:08.127Z,100065.31
2022-11-03T21:45:36.350Z,100073.75
2022-11-03T21:48:23.215Z,100047.22
2022-11-03T21:50:52.030Z,100056.88
2022-11-03T21:54:46.749Z,100042.25
2022-11-03T21:57:29.038Z,100041.06
2022-11-03T22:00:08.379Z,100029.50
2022-11-03T22:02:48.859Z,100032.66
2022-11-03T22:05:41.368Z,100023.41
2022-11-03T22:08:23.275Z,100021.56
2022-11-03T22:11:30.857Z,100017.78
2022-11-03T22:14:09.700Z,100012.03
2022-11-03T22:16:51.413Z,100017.84
2022-11-03T22:19:56.222Z,100015.94
2022-11-03T22:22:52.259Z,100020.59
2022-11-03T22:25:50.291Z,100006.75
2022-11-03T22:29:04.004Z,100005.22
2022-11-03T22:32:53.242Z,99998.28
2022-11-03T22:36:41.968Z,99995.56
2022-11-03T22:40:07.597Z,99999.47
2022-11-03T22:43:36.391Z,99992.94
2022-11-03T22:46:24.176Z,99992.22
2022-11-03T22:49:08.684Z,100001.50
2022-11-03T22:52:02.369Z,99990.00
2022-11-03T22:54:58.085Z,99982.75
2022-11-03T22:57:51.008Z,99970.88
2022-11-03T23:00:46.374Z,99980.16
2022-11-03T23:03:35.899Z,99977.09
2022-11-03T23:06:47.925Z,99976.75
2022-11-03T23:09:30.365Z,99972.47
2022-11-03T23:12:22.085Z,99969.78
2022-11-03T23:15:31.654Z,99969.03
2022-11-03T23:18:40.365Z,99964.34
2022-11-03T23:21:27.165Z,99952.41
2022-11-03T23:24:31.351Z,99962.44
2022-11-03T23:27:19.727Z,99947.44
2022-11-03T23:30:05.438Z,99946.25
2022-11-03T23:33:24.385Z,99943.56
2022-11-03T23:36:39.919Z,99933.09
2022-11-03T23:39:29.713Z,99933.88
2022-11-03T23:42:28.661Z,99934.94
2022-11-03T23:45:55.599Z,99927.22
2022-11-03T23:49:02.467Z,99924.53
2022-11-03T23:51:49.269Z,99919.16
2022-11-03T23:54:31.925Z,99932.25
2022-11-03T23:57:36.731Z,99925.69
